createdAt,value
2018-06-23T00:01:51.537Z,14.23
2018-06-23T00:04:20.026Z,14.19
2018-06-23T00:06:48.392Z,14.19
2018-06-23T00:09:16.716Z,14.25
2018-06-23T00:11:45.053Z,14.19
2018-06-23T00:14:13.428Z,14.14
2018-06-23T00:16:41.811Z,14.17
2018-06-23T00:19:10.148Z,14.12
2018-06-23T00:21:38.492Z,14.12
2018-06-23T00:24:07.180Z,14.04
2018-06-23T00:26:35.537Z,14.02
2018-06-23T00:29:03.970Z,14.00
2018-06-23T00:31:32.293Z,13.97
2018-06-23T00:34:00.628Z,13.95
2018-06-23T00:36:28.970Z,13.92
2018-06-23T00:38:57.287Z,13.91
2018-06-23T00:41:26.198Z,13.93
2018-06-23T00:43:54.585Z,13.94
2018-06-23T00:46:22.965Z,13.90
2018-06-23T00:48:52.155Z,13.92
2018-06-23T00:51:20.522Z,13.94
2018-06-23T00:53:48.916Z,13.88
2018-06-23T00:56:17.299Z,13.87
2018-06-23T00:58:56.999Z,13.88
2018-06-23T01:01:25.331Z,13.83
2018-06-23T01:03:53.820Z,13.81
2018-06-23T01:06:22.149Z,13.82
2018-06-23T01:08:50.472Z,13.75
2018-06-23T01:11:18.806Z,13.79
2018-06-23T01:13:47.139Z,13.77
2018-06-23T01:16:15.460Z,13.72
2018-06-23T01:18:43.807Z,13.76
2018-06-23T01:21:12.165Z,13.73
2018-06-23T01:23:40.482Z,13.78
2018-06-23T01:26:08.842Z,13.75
2018-06-23T01:28:37.151Z,13.71
2018-06-23T01:31:05.539Z,13.71
2018-06-23T01:33:33.844Z,13.67
2018-06-23T01:36:02.201Z,13.64
2018-06-23T01:38:30.552Z,13.62
2018-06-23T01:40:58.892Z,13.55
2018-06-23T01:43:27.238Z,13.57
2018-06-23T01:45:55.587Z,13.58
2018-06-23T01:48:23.914Z,13.56
2018-06-23T01:50:52.272Z,13.58
2018-06-23T01:53:20.636Z,13.62
2018-06-23T01:55:50.599Z,13.62
2018-06-23T01:58:18.928Z,13.64
2018-06-23T02:00:47.387Z,13.56
2018-06-23T02:03:15.710Z,13.60
2018-06-23T02:05:44.051Z,13.56
2018-06-23T02:08:12.380Z,13.61
2018-06-23T02:10:40.722Z,13.57
2018-06-23T02:13:09.272Z,13.57
2018-06-23T02:15:42.906Z,13.54
2018-06-23T02:18:16.544Z,13.53
2018-06-23T02:20:50.362Z,13.51
2018-06-23T02:23:23.884Z,13.53
2018-06-23T02:25:57.595Z,13.53
2018-06-23T02:28:31.360Z,13.41
2018-06-23T02:31:04.879Z,13.41
2018-06-23T02:33:38.591Z,13.39
2018-06-23T02:36:06.969Z,13.39
2018-06-23T02:38:35.304Z,13.38
2018-06-23T02:41:03.663Z,13.36
2018-06-23T02:43:32.030Z,13.32
2018-06-23T02:46:00.349Z,13.36
2018-06-23T02:48:28.701Z,13.34
2018-06-23T02:50:57.029Z,13.28
2018-06-23T02:53:25.388Z,13.30
2018-06-23T02:55:53.721Z,13.25
2018-06-23T02:58:22.218Z,13.29
2018-06-23T03:00:50.535Z,13.26
2018-06-23T03:03:18.871Z,13.23
2018-06-23T03:05:47.205Z,13.22
2018-06-23T03:08:15.682Z,13.15
2018-06-23T03:10:44.033Z,13.14
2018-06-23T03:13:12.428Z,13.12
2018-06-23T03:15:40.754Z,13.12
2018-06-23T03:18:09.131Z,13.09
2018-06-23T03:20:37.465Z,13.06
2018-06-23T03:23:05.804Z,13.05
2018-06-23T03:25:34.165Z,13.07
2018-06-23T03:28:02.498Z,13.02
2018-06-23T03:30:30.819Z,13.01
2018-06-23T03:32:59.171Z,12.99
2018-06-23T03:35:27.526Z,13.01
2018-06-23T03:37:55.854Z,13.05
2018-06-23T03:40:24.203Z,13.04
2018-06-23T03:42:52.531Z,13.05
2018-06-23T03:45:20.893Z,13.06
2018-06-23T03:47:49.224Z,13.03
2018-06-23T03:50:17.584Z,13.07
2018-06-23T03:52:45.927Z,13.07
2018-06-23T03:55:14.274Z,13.03
2018-06-23T03:57:42.600Z,13.08
2018-06-23T04:00:10.941Z,13.09
2018-06-23T04:02:39.312Z,13.11
2018-06-23T04:05:07.706Z,13.13
2018-06-23T04:07:36.095Z,13.12
2018-06-23T04:10:04.449Z,13.09
2018-06-23T04:12:32.768Z,13.09
2018-06-23T04:15:01.098Z,13.14
2018-06-23T04:17:29.613Z,13.19
2018-06-23T04:19:57.943Z,13.20
2018-06-23T04:22:26.299Z,13.18
2018-06-23T04:24:54.622Z,13.22
2018-06-23T04:27:22.944Z,13.20
2018-06-23T04:29:51.496Z,13.16
2018-06-23T04:32:19.843Z,13.19
2018-06-23T04:34:48.351Z,13.23
2018-06-23T04:37:16.659Z,13.26
2018-06-23T04:39:45.041Z,13.27
2018-06-23T04:42:13.420Z,13.32
2018-06-23T04:44:42.618Z,13.33
2018-06-23T04:47:10.956Z,13.26
2018-06-23T04:49:39.334Z,13.32
2018-06-23T04:52:07.662Z,13.30
2018-06-23T04:54:36.000Z,13.36
2018-06-23T04:57:04.337Z,13.48
2018-06-23T04:59:32.651Z,13.47
2018-06-23T05:02:01.066Z,13.44
2018-06-23T05:04:29.414Z,13.45
2018-06-23T05:06:57.792Z,13.52
2018-06-23T05:09:26.130Z,13.51
2018-06-23T05:11:54.441Z,13.51
2018-06-23T05:14:22.786Z,13.62
2018-06-23T05:16:51.140Z,13.65
2018-06-23T05:19:19.490Z,13.61
2018-06-23T05:21:47.826Z,13.65
2018-06-23T05:24:16.208Z,13.61
2018-06-23T05:26:44.553Z,13.62
2018-06-23T05:29:12.898Z,13.70
2018-06-23T05:31:41.258Z,13.67
2018-06-23T05:34:09.589Z,13.68
2018-06-23T05:36:37.947Z,13.83
2018-06-23T05:39:08.289Z,13.89
2018-06-23T05:41:36.632Z,13.98
2018-06-23T05:44:05.246Z,13.97
2018-06-23T05:46:33.713Z,14.17
2018-06-23T05:49:02.043Z,14.26
2018-06-23T05:51:30.420Z,14.29
2018-06-23T05:53:59.519Z,14.30
2018-06-23T05:56:27.903Z,14.35
2018-06-23T05:58:56.755Z,14.43
2018-06-23T06:01:25.101Z,14.44
2018-06-23T06:03:53.446Z,14.40
2018-06-23T06:06:21.791Z,14.33
2018-06-23T06:08:50.135Z,14.31
2018-06-23T06:11:18.451Z,14.37
2018-06-23T06:13:46.793Z,14.40
2018-06-23T06:16:15.196Z,14.52
2018-06-23T06:18:43.483Z,14.60
2018-06-23T06:21:11.819Z,14.51
2018-06-23T06:23:40.233Z,14.52
2018-06-23T06:26:08.584Z,14.59
2018-06-23T06:28:36.931Z,14.59
2018-06-23T06:31:05.274Z,14.52
2018-06-23T06:33:33.615Z,14.56
2018-06-23T06:36:01.942Z,14.41
2018-06-23T06:38:30.308Z,14.60
2018-06-23T06:40:58.655Z,14.55
2018-06-23T06:43:26.966Z,14.48
2018-06-23T06:45:55.329Z,14.49
2018-06-23T06:48:23.642Z,14.43
2018-06-23T06:50:51.991Z,14.43
2018-06-23T06:53:20.330Z,14.49
2018-06-23T06:55:48.682Z,14.37
2018-06-23T06:58:17.055Z,14.32
2018-06-23T07:00:45.485Z,14.32
2018-06-23T07:03:13.810Z,14.39
2018-06-23T07:05:42.723Z,14.38
2018-06-23T07:08:11.063Z,14.39
2018-06-23T07:10:39.413Z,14.32
2018-06-23T07:13:07.771Z,14.33
2018-06-23T07:15:36.114Z,14.44
2018-06-23T07:18:04.525Z,14.62
2018-06-23T07:20:32.864Z,14.66
2018-06-23T07:23:01.203Z,14.70
2018-06-23T07:25:29.534Z,14.83
2018-06-23T07:27:57.872Z,14.67
2018-06-23T07:30:26.204Z,14.76
2018-06-23T07:32:54.545Z,14.76
2018-06-23T07:35:23.246Z,14.75
2018-06-23T07:37:51.610Z,14.66
2018-06-23T07:40:19.925Z,14.78
2018-06-23T07:42:48.400Z,15.08
2018-06-23T07:45:16.747Z,15.15
2018-06-23T07:47:45.071Z,15.54
2018-06-23T07:50:13.607Z,15.76
2018-06-23T07:52:41.991Z,15.99
2018-06-23T07:55:10.440Z,15.94
2018-06-23T07:57:38.788Z,16.18
2018-06-23T08:00:07.127Z,16.21
2018-06-23T08:02:35.476Z,16.22
2018-06-23T08:05:04.093Z,16.18
2018-06-23T08:07:32.473Z,16.26
2018-06-23T08:10:00.879Z,16.33
2018-06-23T08:12:29.278Z,16.21
2018-06-23T08:14:57.673Z,15.99
2018-06-23T08:17:26.043Z,16.19
2018-06-23T08:19:54.408Z,16.06
2018-06-23T08:22:22.784Z,15.94
2018-06-23T08:24:51.149Z,16.00
2018-06-23T08:27:19.472Z,15.97
2018-06-23T08:29:47.815Z,15.94
2018-06-23T08:32:16.333Z,15.96
2018-06-23T08:34:44.679Z,15.84
2018-06-23T08:37:13.092Z,16.25
2018-06-23T08:39:41.406Z,16.35
2018-06-23T08:42:09.703Z,16.37
2018-06-23T08:44:38.063Z,16.39
2018-06-23T08:47:06.459Z,16.28
2018-06-23T08:49:34.807Z,16.20
2018-06-23T08:52:03.129Z,16.24
2018-06-23T08:54:31.506Z,16.21
2018-06-23T08:56:59.916Z,15.97
2018-06-23T08:59:28.248Z,16.11
2018-06-23T09:01:56.635Z,16.21
2018-06-23T09:04:25.089Z,16.28
2018-06-23T09:06:53.434Z,16.38
2018-06-23T09:09:21.887Z,16.42
2018-06-23T09:11:50.220Z,16.51
2018-06-23T09:14:18.531Z,16.65
2018-06-23T09:16:46.912Z,16.63
2018-06-23T09:19:15.250Z,16.76
2018-06-23T09:21:43.576Z,16.84
2018-06-23T09:24:11.916Z,16.82
2018-06-23T09:26:40.273Z,16.86
2018-06-23T09:29:08.613Z,16.79
2018-06-23T09:31:37.666Z,16.88
2018-06-23T09:34:06.036Z,16.84
2018-06-23T09:36:34.370Z,16.87
2018-06-23T09:39:02.716Z,16.94
2018-06-23T09:41:31.051Z,16.94
2018-06-23T09:43:59.376Z,16.95
2018-06-23T09:46:27.770Z,17.07
2018-06-23T09:48:56.123Z,16.98
2018-06-23T09:51:24.694Z,17.01
2018-06-23T09:53:53.007Z,17.10
2018-06-23T09:56:21.734Z,17.00
2018-06-23T09:58:50.102Z,17.13
2018-06-23T10:01:18.473Z,17.14
2018-06-23T10:03:46.831Z,17.20
2018-06-23T10:06:15.180Z,17.24
2018-06-23T10:08:43.534Z,17.31
2018-06-23T10:11:11.863Z,17.48
2018-06-23T10:13:40.449Z,17.50
2018-06-23T10:16:08.891Z,17.55
2018-06-23T10:18:37.220Z,18.05
2018-06-23T10:21:05.581Z,18.10
2018-06-23T10:23:33.924Z,18.29
2018-06-23T10:26:02.305Z,18.77
2018-06-23T10:28:30.628Z,18.93
2018-06-23T10:30:58.975Z,18.85
2018-06-23T10:33:27.379Z,18.74
2018-06-23T10:35:55.719Z,18.70
2018-06-23T10:38:24.113Z,18.74
2018-06-23T10:40:52.416Z,18.70
2018-06-23T10:43:20.862Z,18.60
2018-06-23T10:45:49.355Z,18.72
2018-06-23T10:48:17.805Z,18.73
2018-06-23T10:50:46.136Z,19.09
2018-06-23T10:53:14.490Z,19.12
2018-06-23T10:55:42.825Z,19.23
2018-06-23T10:58:11.177Z,19.60
2018-06-23T11:00:39.804Z,19.63
2018-06-23T11:03:08.212Z,19.70
2018-06-23T11:05:36.532Z,19.68
2018-06-23T11:08:04.942Z,19.86
2018-06-23T11:10:33.272Z,19.95
2018-06-23T11:13:01.639Z,19.80
2018-06-23T11:15:30.009Z,19.62
2018-06-23T11:17:58.439Z,19.49
2018-06-23T11:20:26.819Z,19.62
2018-06-23T11:22:55.146Z,19.53
2018-06-23T11:25:23.509Z,19.63
2018-06-23T11:27:51.855Z,19.52
2018-06-23T11:30:20.175Z,19.62
2018-06-23T11:32:48.515Z,19.62
2018-06-23T11:35:16.855Z,19.77
2018-06-23T11:37:45.204Z,19.86
2018-06-23T11:40:13.533Z,19.85
2018-06-23T11:42:41.848Z,19.79
2018-06-23T11:45:10.251Z,19.77
2018-06-23T11:47:38.727Z,19.78
2018-06-23T11:50:07.146Z,19.79
2018-06-23T11:52:35.524Z,19.83
2018-06-23T11:55:03.898Z,19.77
2018-06-23T11:57:32.232Z,19.71
2018-06-23T12:00:00.564Z,19.49
2018-06-23T12:02:28.917Z,19.53
2018-06-23T12:04:57.268Z,19.66
2018-06-23T12:07:25.600Z,19.51
2018-06-23T12:09:53.941Z,19.57
2018-06-23T12:12:22.256Z,19.55
2018-06-23T12:14:50.659Z,19.59
2018-06-23T12:17:18.984Z,19.70
2018-06-23T12:19:47.322Z,19.44
2018-06-23T12:22:15.648Z,19.16
2018-06-23T12:24:43.999Z,19.14
2018-06-23T12:27:12.495Z,19.26
2018-06-23T12:29:41.172Z,19.36
2018-06-23T12:32:09.642Z,19.19
2018-06-23T12:34:38.139Z,19.33
2018-06-23T12:37:06.592Z,19.48
2018-06-23T12:39:35.000Z,19.44
2018-06-23T12:42:03.351Z,19.48
2018-06-23T12:44:31.692Z,19.33
2018-06-23T12:47:00.048Z,19.35
2018-06-23T12:49:28.496Z,19.32
2018-06-23T12:51:56.923Z,19.16
2018-06-23T12:54:25.691Z,19.12
2018-06-23T12:56:54.693Z,18.99
2018-06-23T12:59:23.045Z,19.08
2018-06-23T13:01:51.526Z,19.04
2018-06-23T13:04:19.902Z,18.93
2018-06-23T13:06:48.273Z,18.87
2018-06-23T13:09:16.790Z,18.87
2018-06-23T13:11:45.135Z,18.79
2018-06-23T13:14:13.491Z,18.68
2018-06-23T13:16:41.959Z,18.49
2018-06-23T13:19:10.276Z,18.07
2018-06-23T13:21:38.588Z,17.85
2018-06-23T13:24:07.014Z,17.77
2018-06-23T13:26:35.338Z,17.80
2018-06-23T13:29:03.794Z,17.86
2018-06-23T13:31:32.128Z,17.84
2018-06-23T13:34:00.448Z,17.78
2018-06-23T13:36:28.832Z,17.92
2018-06-23T13:38:57.143Z,17.91
2018-06-23T13:41:25.548Z,18.02
2018-06-23T13:43:53.900Z,18.13
2018-06-23T13:46:22.452Z,18.17
2018-06-23T13:48:50.826Z,18.23
2018-06-23T13:51:19.435Z,18.25
2018-06-23T13:53:48.064Z,18.31
2018-06-23T13:56:16.399Z,18.32
2018-06-23T13:58:44.757Z,18.20
2018-06-23T14:01:13.130Z,18.18
2018-06-23T14:03:41.791Z,18.22
2018-06-23T14:06:10.265Z,18.33
2018-06-23T14:08:38.944Z,18.31
2018-06-23T14:11:07.334Z,18.29
2018-06-23T14:13:35.694Z,18.36
2018-06-23T14:16:04.174Z,18.34
2018-06-23T14:18:33.116Z,18.14
2018-06-23T14:21:01.470Z,18.09
2018-06-23T14:23:29.873Z,18.00
2018-06-23T14:25:58.223Z,17.92
2018-06-23T14:28:27.145Z,17.82
2018-06-23T14:30:55.494Z,17.80
2018-06-23T14:33:23.825Z,17.86
2018-06-23T14:35:52.706Z,17.90
2018-06-23T14:38:21.071Z,17.89
2018-06-23T14:40:49.451Z,17.96
2018-06-23T14:43:17.833Z,17.97
2018-06-23T14:45:46.340Z,17.97
2018-06-23T14:48:14.832Z,18.08
2018-06-23T14:50:43.235Z,18.14
2018-06-23T14:53:11.614Z,18.06
2018-06-23T14:55:40.001Z,17.98
2018-06-23T14:58:08.385Z,17.85
2018-06-23T15:00:36.921Z,17.70
2018-06-23T15:03:05.272Z,17.60
2018-06-23T15:05:33.928Z,17.43
2018-06-23T15:08:13.671Z,17.41
2018-06-23T15:11:56.511Z,17.22
2018-06-23T15:14:24.869Z,17.07
2018-06-23T15:16:53.210Z,17.06
2018-06-23T15:19:21.563Z,17.00
2018-06-23T15:21:49.968Z,16.87
2018-06-23T15:24:18.859Z,16.81
2018-06-23T15:26:47.217Z,16.47
2018-06-23T15:29:15.568Z,16.53
2018-06-23T15:31:44.022Z,16.32
2018-06-23T15:34:12.652Z,16.32
2018-06-23T15:36:41.005Z,16.36
2018-06-23T15:39:10.239Z,16.23
2018-06-23T15:41:38.739Z,16.23
2018-06-23T15:44:07.098Z,16.14
2018-06-23T15:46:35.751Z,16.10
2018-06-23T15:49:04.409Z,16.09
2018-06-23T15:51:32.778Z,16.01
2018-06-23T15:54:01.295Z,16.11
2018-06-23T15:56:29.965Z,16.12
2018-06-23T15:58:58.329Z,16.08
2018-06-23T16:01:26.778Z,16.07
2018-06-23T16:03:55.216Z,16.12
2018-06-23T16:06:23.778Z,16.19
2018-06-23T16:08:52.244Z,16.24
2018-06-23T16:11:20.565Z,16.28
2018-06-23T16:13:48.904Z,16.33
2018-06-23T16:16:17.255Z,16.27
2018-06-23T16:18:45.735Z,16.41
2018-06-23T16:21:14.348Z,16.41
2018-06-23T16:23:42.773Z,16.47
2018-06-23T16:26:11.211Z,16.38
2018-06-23T16:28:39.656Z,16.29
2018-06-23T16:31:07.951Z,16.40
2018-06-23T16:33:36.284Z,16.46
2018-06-23T16:36:05.251Z,16.35
2018-06-23T16:38:33.621Z,16.28
2018-06-23T16:41:01.973Z,16.36
2018-06-23T16:43:30.310Z,16.31
2018-06-23T16:45:58.760Z,16.39
2018-06-23T16:48:27.113Z,16.33
2018-06-23T16:50:55.481Z,16.33
2018-06-23T16:53:24.184Z,16.29
2018-06-23T16:55:52.571Z,16.33
2018-06-23T16:58:20.932Z,16.23
2018-06-23T17:00:49.290Z,16.23
2018-06-23T17:03:17.648Z,16.22
2018-06-23T17:05:46.069Z,16.27
2018-06-23T17:08:14.451Z,16.16
2018-06-23T17:10:42.797Z,16.25
2018-06-23T17:13:11.175Z,16.22
2018-06-23T17:15:39.556Z,16.29
2018-06-23T17:18:08.906Z,16.34
2018-06-23T17:20:37.491Z,16.30
2018-06-23T17:23:05.978Z,16.30
2018-06-23T17:25:34.344Z,16.33
2018-06-23T17:28:02.779Z,16.34
2018-06-23T17:30:31.158Z,16.37
2018-06-23T17:32:59.694Z,16.29
2018-06-23T17:35:28.119Z,16.34
2018-06-23T17:37:56.499Z,16.29
2018-06-23T17:40:24.917Z,16.25
2018-06-23T17:42:53.293Z,16.25
2018-06-23T17:45:22.360Z,16.23
2018-06-23T17:47:50.742Z,16.13
2018-06-23T17:50:19.095Z,15.98
2018-06-23T17:52:47.451Z,15.94
2018-06-23T17:55:15.835Z,15.97
2018-06-23T17:57:44.395Z,15.88
2018-06-23T18:00:12.728Z,15.76
2018-06-23T18:02:41.272Z,15.79
2018-06-23T18:05:09.632Z,15.85
2018-06-23T18:07:37.962Z,15.81
2018-06-23T18:10:06.660Z,15.75
2018-06-23T18:12:35.201Z,15.73
2018-06-23T18:15:03.683Z,15.69
2018-06-23T18:17:32.100Z,15.75
2018-06-23T18:20:00.585Z,15.67
2018-06-23T18:22:30.496Z,15.60
2018-06-23T18:24:58.838Z,15.59
2018-06-23T18:27:27.212Z,15.60
2018-06-23T18:29:55.632Z,15.48
2018-06-23T18:32:24.020Z,15.50
2018-06-23T18:34:52.391Z,15.51
2018-06-23T18:37:20.776Z,15.37
2018-06-23T18:39:49.141Z,15.36
2018-06-23T18:42:17.492Z,15.41
2018-06-23T18:44:45.946Z,15.39
2018-06-23T18:47:14.325Z,15.47
2018-06-23T18:49:42.672Z,15.34
2018-06-23T18:52:11.047Z,15.28
2018-06-23T18:54:39.388Z,15.19
2018-06-23T18:57:07.777Z,15.19
2018-06-23T18:59:36.148Z,15.10
2018-06-23T19:02:04.561Z,15.16
2018-06-23T19:04:32.939Z,15.13
2018-06-23T19:07:01.880Z,15.11
2018-06-23T19:09:30.207Z,15.13
2018-06-23T19:11:58.590Z,15.06
2018-06-23T19:14:26.991Z,15.02
2018-06-23T19:16:55.460Z,15.05
2018-06-23T19:19:24.303Z,15.00
2018-06-23T19:21:52.830Z,15.02
2018-06-23T19:24:21.305Z,14.99
2018-06-23T19:26:49.984Z,15.04
2018-06-23T19:29:18.344Z,14.96
2018-06-23T19:31:46.705Z,14.90
2018-06-23T19:34:15.061Z,14.94
2018-06-23T19:36:43.408Z,14.89
2018-06-23T19:39:12.158Z,14.84
2018-06-23T19:41:40.508Z,14.90
2018-06-23T19:44:09.024Z,14.88
2018-06-23T19:46:37.334Z,14.92
2018-06-23T19:49:05.749Z,14.85
2018-06-23T19:51:34.078Z,14.84
2018-06-23T19:54:02.472Z,14.81
2018-06-23T19:56:30.803Z,14.78
2018-06-23T19:58:59.211Z,14.72
2018-06-23T20:01:27.504Z,14.70
2018-06-23T20:03:55.849Z,14.64
2018-06-23T20:06:24.200Z,14.64
2018-06-23T20:08:52.561Z,14.60
2018-06-23T20:11:20.891Z,14.62
2018-06-23T20:13:49.304Z,14.50
2018-06-23T20:16:17.634Z,14.50
2018-06-23T20:18:45.957Z,14.50
2018-06-23T20:21:14.295Z,14.47
2018-06-23T20:23:42.674Z,14.43
2018-06-23T20:26:11.049Z,14.48
2018-06-23T20:28:39.501Z,14.43
2018-06-23T20:31:07.914Z,14.45
2018-06-23T20:33:36.219Z,14.45
2018-06-23T20:36:04.680Z,14.46
2018-06-23T20:38:33.025Z,14.43
2018-06-23T20:41:01.372Z,14.43
2018-06-23T20:43:29.746Z,14.32
2018-06-23T20:45:58.194Z,14.33
2018-06-23T20:48:26.557Z,14.38
2018-06-23T20:50:54.919Z,14.34
2018-06-23T20:53:23.300Z,14.26
2018-06-23T20:55:51.674Z,14.20
2018-06-23T20:58:20.012Z,14.27
2018-06-23T21:00:48.359Z,14.27
2018-06-23T21:03:16.726Z,14.24
2018-06-23T21:05:45.127Z,14.24
2018-06-23T21:08:13.496Z,14.25
2018-06-23T21:10:47.200Z,14.21
2018-06-23T21:13:15.541Z,14.20
2018-06-23T21:15:43.869Z,14.14
2018-06-23T21:18:12.273Z,14.16
2018-06-23T21:20:40.633Z,14.18
2018-06-23T21:23:09.011Z,14.13
2018-06-23T21:25:37.454Z,14.14
2018-06-23T21:28:05.933Z,14.12
2018-06-23T21:30:34.295Z,14.11
2018-06-23T21:33:02.590Z,14.01
2018-06-23T21:35:30.914Z,14.02
2018-06-23T21:37:59.244Z,14.04
2018-06-23T21:40:27.647Z,14.02
2018-06-23T21:42:56.015Z,14.06
2018-06-23T21:45:24.436Z,14.07
2018-06-23T21:47:52.777Z,14.05
2018-06-23T21:50:21.092Z,14.00
2018-06-23T21:52:49.520Z,14.01
2018-06-23T21:55:17.882Z,13.98
2018-06-23T21:57:46.273Z,13.96
2018-06-23T22:00:37.119Z,13.99
2018-06-23T22:03:07.545Z,13.97
2018-06-23T22:05:36.092Z,13.96
2018-06-23T22:08:04.982Z,13.99
2018-06-23T22:10:33.389Z,14.00
2018-06-23T22:13:01.724Z,13.95
2018-06-23T22:15:30.065Z,13.94
2018-06-23T22:17:58.404Z,13.96
2018-06-23T22:20:26.726Z,13.95
2018-06-23T22:22:55.066Z,13.94
2018-06-23T22:25:23.773Z,13.95
2018-06-23T22:27:52.130Z,13.91
2018-06-23T22:30:21.244Z,13.92
2018-06-23T22:32:49.573Z,13.86
2018-06-23T22:35:17.989Z,13.90
2018-06-23T22:37:46.309Z,13.89
2018-06-23T22:40:14.643Z,13.83
2018-06-23T22:42:42.975Z,13.86
2018-06-23T22:45:11.304Z,13.87
2018-06-23T22:47:39.683Z,13.82
2018-06-23T22:50:08.903Z,13.81
2018-06-23T22:52:37.581Z,13.86
2018-06-23T22:55:06.324Z,13.78
2018-06-23T22:57:34.697Z,13.79
2018-06-23T23:00:03.050Z,13.82
2018-06-23T23:02:31.387Z,13.81
2018-06-23T23:04:59.738Z,13.82
2018-06-23T23:07:28.726Z,13.83
2018-06-23T23:09:57.512Z,13.82
2018-06-23T23:12:25.842Z,13.81
2018-06-23T23:14:54.174Z,13.79
2018-06-23T23:17:22.553Z,13.82
2018-06-23T23:19:50.883Z,13.77
2018-06-23T23:22:19.344Z,13.79
2018-06-23T23:24:47.640Z,13.80
2018-06-23T23:27:16.233Z,13.80
2018-06-23T23:29:44.583Z,13.79
2018-06-23T23:32:12.924Z,13.70
2018-06-23T23:34:41.273Z,13.74
2018-06-23T23:37:09.652Z,13.74
2018-06-23T23:39:37.982Z,13.75
2018-06-23T23:42:06.308Z,13.75
2018-06-23T23:44:34.615Z,13.78
2018-06-23T23:47:02.993Z,13.73
2018-06-23T23:49:31.374Z,13.73
2018-06-23T23:51:59.744Z,13.70
2018-06-23T23:54:28.092Z,13.71
2018-06-23T23:56:56.421Z,13.74
2018-06-23T23:59:24.749Z,13.72
